createdAt,value
2018-10-16T00:02:10.630Z,11.60
2018-10-16T00:04:40.488Z,11.54
2018-10-16T00:07:10.413Z,11.50
2018-10-16T00:09:40.232Z,11.46
2018-10-16T00:12:10.059Z,11.39
2018-10-16T00:14:39.895Z,11.37
2018-10-16T00:17:09.750Z,11.36
2018-10-16T00:19:39.618Z,11.32
2018-10-16T00:22:09.523Z,11.30
2018-10-16T00:24:39.392Z,11.27
2018-10-16T00:27:09.203Z,11.26
2018-10-16T00:29:39.031Z,11.25
2018-10-16T00:32:08.896Z,11.22
2018-10-16T00:34:38.721Z,11.19
2018-10-16T00:37:08.569Z,11.12
2018-10-16T00:39:38.405Z,11.03
2018-10-16T00:42:08.228Z,11.01
2018-10-16T00:44:38.110Z,11.01
2018-10-16T00:47:07.940Z,11.02
2018-10-16T00:49:37.867Z,10.00
2018-10-16T00:52:07.667Z,10.97
2018-10-16T00:54:37.526Z,10.94
2018-10-16T00:57:07.395Z,10.87
2018-10-16T00:59:37.242Z,10.83
2018-10-16T01:02:07.095Z,10.77
2018-10-16T01:04:36.965Z,10.70
2018-10-16T01:07:06.846Z,10.65
2018-10-16T01:09:36.739Z,8.47
2018-10-16T01:12:06.816Z,10.60
2018-10-16T01:14:36.610Z,10.60
2018-10-16T01:17:06.640Z,10.59
2018-10-16T01:19:36.475Z,10.58
2018-10-16T01:22:06.581Z,10.55
2018-10-16T01:24:36.457Z,10.51
2018-10-16T01:27:06.296Z,10.45
2018-10-16T01:29:36.159Z,10.45
2018-10-16T01:32:06.365Z,10.39
2018-10-16T01:34:36.308Z,10.30
2018-10-16T01:37:06.127Z,10.23
2018-10-16T01:39:35.944Z,10.26
2018-10-16T01:42:05.895Z,10.21
2018-10-16T01:44:35.732Z,10.21
2018-10-16T01:47:05.748Z,10.21
2018-10-16T01:49:35.617Z,10.22
2018-10-16T01:52:05.431Z,10.24
2018-10-16T01:54:35.264Z,10.28
2018-10-16T01:57:05.230Z,10.27
2018-10-16T01:59:35.146Z,10.24
2018-10-16T02:02:05.607Z,10.17
2018-10-16T02:04:35.513Z,10.12
2018-10-16T02:07:05.340Z,10.04
2018-10-16T02:09:35.204Z,10.00
2018-10-16T02:12:05.223Z,9.94
2018-10-16T02:14:35.076Z,9.91
2018-10-16T02:17:04.850Z,9.82
2018-10-16T02:19:34.674Z,9.80
2018-10-16T02:22:04.451Z,9.78
2018-10-16T02:24:34.049Z,9.77
2018-10-16T02:27:03.796Z,9.76
2018-10-16T02:29:33.567Z,9.75
2018-10-16T02:32:03.335Z,9.76
2018-10-16T02:34:33.033Z,9.78
2018-10-16T02:37:02.796Z,9.82
2018-10-16T02:39:32.567Z,9.86
2018-10-16T02:42:02.347Z,9.85
2018-10-16T02:44:32.153Z,9.24
2018-10-16T02:47:01.943Z,9.81
2018-10-16T02:49:31.759Z,9.72
2018-10-16T02:52:01.546Z,9.70
2018-10-16T02:54:31.350Z,9.66
2018-10-16T02:57:01.052Z,9.60
2018-10-16T02:59:30.839Z,9.59
2018-10-16T03:02:00.647Z,9.57
2018-10-16T03:04:30.426Z,9.58
2018-10-16T03:07:00.237Z,9.61
2018-10-16T03:09:29.954Z,9.55
2018-10-16T03:11:59.759Z,9.51
2018-10-16T03:14:29.668Z,9.46
2018-10-16T03:17:00.295Z,9.43
2018-10-16T03:19:30.202Z,9.42
2018-10-16T03:22:00.084Z,9.35
2018-10-16T03:24:30.013Z,9.27
2018-10-16T03:26:59.872Z,9.22
2018-10-16T03:29:29.915Z,9.16
2018-10-16T03:31:59.813Z,9.12
2018-10-16T03:34:29.723Z,9.08
2018-10-16T03:36:59.566Z,9.07
2018-10-16T03:39:29.400Z,9.08
2018-10-16T03:41:59.161Z,9.08
2018-10-16T03:44:28.979Z,9.09
2018-10-16T03:46:58.830Z,9.08
2018-10-16T03:49:28.698Z,9.06
2018-10-16T03:51:58.430Z,9.04
2018-10-16T03:54:28.360Z,9.06
2018-10-16T03:56:58.117Z,9.04
2018-10-16T03:59:28.075Z,9.02
2018-10-16T04:01:57.875Z,9.02
2018-10-16T04:04:27.756Z,9.04
2018-10-16T04:06:57.639Z,9.02
2018-10-16T04:09:27.455Z,8.98
2018-10-16T04:11:57.251Z,8.91
2018-10-16T04:14:27.334Z,8.89
2018-10-16T04:16:57.226Z,8.85
2018-10-16T04:19:27.078Z,8.77
2018-10-16T04:21:56.811Z,8.70
2018-10-16T04:24:26.664Z,8.66
2018-10-16T04:26:56.528Z,8.63
2018-10-16T04:29:26.574Z,8.68
2018-10-16T04:31:56.754Z,8.74
2018-10-16T04:34:26.606Z,8.79
2018-10-16T04:36:56.491Z,8.80
2018-10-16T04:39:26.471Z,8.76
2018-10-16T04:41:56.481Z,8.67
2018-10-16T04:44:26.426Z,8.72
2018-10-16T04:46:56.150Z,8.74
2018-10-16T04:49:25.927Z,8.74
2018-10-16T04:51:55.847Z,9.07
2018-10-16T04:54:25.757Z,9.35
2018-10-16T04:56:55.579Z,9.43
2018-10-16T04:59:25.367Z,8.95
2018-10-16T05:01:55.174Z,9.25
2018-10-16T05:04:24.992Z,9.14
2018-10-16T05:06:55.287Z,9.03
2018-10-16T05:09:25.161Z,8.96
2018-10-16T05:11:56.007Z,8.34
2018-10-16T05:14:25.889Z,8.79
2018-10-16T05:16:55.729Z,8.75
2018-10-16T05:19:25.452Z,8.73
2018-10-16T05:21:55.257Z,8.75
2018-10-16T05:24:25.033Z,8.71
2018-10-16T05:26:54.892Z,8.71
2018-10-16T05:29:24.634Z,8.70
2018-10-16T05:31:54.459Z,8.73
2018-10-16T05:34:24.351Z,8.73
2018-10-16T05:36:55.134Z,8.78
2018-10-16T05:39:24.897Z,8.74
2018-10-16T05:41:54.766Z,8.71
2018-10-16T05:44:24.710Z,8.70
2018-10-16T05:46:54.593Z,8.78
2018-10-16T05:49:24.544Z,8.84
2018-10-16T05:51:54.369Z,8.96
2018-10-16T05:54:24.332Z,9.09
2018-10-16T05:56:54.310Z,9.24
2018-10-16T05:59:24.044Z,9.33
2018-10-16T06:01:53.889Z,9.40
2018-10-16T06:04:23.814Z,9.43
2018-10-16T06:06:53.578Z,9.50
2018-10-16T06:09:23.415Z,9.56
2018-10-16T06:11:53.186Z,9.63
2018-10-16T06:14:23.015Z,9.84
2018-10-16T06:16:52.950Z,10.03
2018-10-16T06:19:22.900Z,10.03
2018-10-16T06:21:52.661Z,10.00
2018-10-16T06:24:22.567Z,10.09
2018-10-16T06:26:52.455Z,10.21
2018-10-16T06:29:22.205Z,10.32
2018-10-16T06:31:52.073Z,10.43
2018-10-16T06:34:21.932Z,10.58
2018-10-16T06:36:51.841Z,10.69
2018-10-16T06:39:21.658Z,10.83
2018-10-16T06:41:51.550Z,10.92
2018-10-16T06:44:21.503Z,11.05
2018-10-16T06:46:51.376Z,11.17
2018-10-16T06:49:21.234Z,11.23
2018-10-16T06:51:51.101Z,11.29
2018-10-16T06:54:20.943Z,11.38
2018-10-16T06:56:50.918Z,11.42
2018-10-16T06:59:20.711Z,11.50
2018-10-16T07:01:50.879Z,11.62
2018-10-16T07:04:20.752Z,11.71
2018-10-16T07:06:50.669Z,11.75
2018-10-16T07:09:20.512Z,11.90
2018-10-16T07:11:50.470Z,11.93
2018-10-16T07:14:20.413Z,11.98
2018-10-16T07:16:50.363Z,12.06
2018-10-16T07:19:20.281Z,12.14
2018-10-16T07:21:50.228Z,12.18
2018-10-16T07:24:20.192Z,12.28
2018-10-16T07:26:50.017Z,12.34
2018-10-16T07:29:19.929Z,12.52
2018-10-16T07:31:49.838Z,12.53
2018-10-16T07:34:19.818Z,12.65
2018-10-16T07:36:49.697Z,12.70
2018-10-16T07:39:19.553Z,12.81
2018-10-16T07:41:49.520Z,12.86
2018-10-16T07:44:19.435Z,12.92
2018-10-16T07:46:49.287Z,13.00
2018-10-16T07:49:19.181Z,13.12
2018-10-16T07:51:49.061Z,13.16
2018-10-16T07:54:19.190Z,13.19
2018-10-16T07:56:49.232Z,13.29
2018-10-16T07:59:19.123Z,13.40
2018-10-16T08:01:48.960Z,13.50
2018-10-16T08:04:18.982Z,13.60
2018-10-16T08:06:48.848Z,13.82
2018-10-16T08:09:18.755Z,14.11
2018-10-16T08:11:49.816Z,14.32
2018-10-16T08:14:20.774Z,14.40
2018-10-16T08:16:51.339Z,14.61
2018-10-16T08:19:21.243Z,14.89
2018-10-16T08:21:51.100Z,15.19
2018-10-16T08:24:21.048Z,15.43
2018-10-16T08:26:50.914Z,15.66
2018-10-16T08:29:20.831Z,15.91
2018-10-16T08:31:50.738Z,16.08
2018-10-16T08:34:20.662Z,16.10
2018-10-16T08:36:50.518Z,16.27
2018-10-16T08:39:26.649Z,16.62
2018-10-16T08:44:20.619Z,16.92
2018-10-16T08:47:02.192Z,17.34
2018-10-16T08:49:43.257Z,17.58
2018-10-16T08:52:13.339Z,17.75
2018-10-16T08:54:43.994Z,17.73
2018-10-16T08:57:14.814Z,17.71
2018-10-16T08:59:45.048Z,17.67
2018-10-16T09:02:14.862Z,17.69
2018-10-16T09:04:45.006Z,17.65
2018-10-16T09:07:15.224Z,17.67
2018-10-16T09:09:45.774Z,17.76
2018-10-16T09:12:16.549Z,17.77
2018-10-16T09:14:46.834Z,17.83
2018-10-16T09:17:17.728Z,17.91
2018-10-16T09:19:47.605Z,17.94
2018-10-16T09:22:17.400Z,17.99
2018-10-16T09:24:47.475Z,18.04
2018-10-16T09:27:18.160Z,18.11
2018-10-16T09:29:48.729Z,18.12
2018-10-16T09:32:19.733Z,18.12
2018-10-16T09:34:50.477Z,18.21
2018-10-16T09:37:21.230Z,18.23
2018-10-16T09:39:52.403Z,18.27
2018-10-16T09:42:23.172Z,18.33
2018-10-16T09:44:54.109Z,18.36
2018-10-16T09:47:23.887Z,18.43
2018-10-16T09:49:54.584Z,18.47
2018-10-16T09:52:26.226Z,18.58
2018-10-16T09:54:56.981Z,18.60
2018-10-16T09:57:26.832Z,18.64
2018-10-16T09:59:57.045Z,18.68
2018-10-16T10:02:27.918Z,18.70
2018-10-16T10:04:58.572Z,18.67
2018-10-16T10:07:29.586Z,18.75
2018-10-16T10:09:59.417Z,18.83
2018-10-16T10:12:29.654Z,18.76
2018-10-16T10:14:59.956Z,18.79
2018-10-16T10:17:30.006Z,18.66
2018-10-16T10:20:00.353Z,18.42
2018-10-16T10:22:30.904Z,18.44
2018-10-16T10:25:02.533Z,18.45
2018-10-16T10:27:33.225Z,18.43
2018-10-16T10:30:03.231Z,18.52
2018-10-16T10:32:33.179Z,18.46
2018-10-16T10:35:03.469Z,18.37
2018-10-16T10:37:33.351Z,18.21
2018-10-16T10:40:03.329Z,17.96
2018-10-16T10:42:34.153Z,17.83
2018-10-16T10:45:04.971Z,17.81
2018-10-16T10:47:35.633Z,17.80
2018-10-16T10:50:07.668Z,17.83
2018-10-16T10:52:38.612Z,17.79
2018-10-16T10:55:09.383Z,17.70
2018-10-16T10:57:40.960Z,17.54
2018-10-16T11:00:14.237Z,17.61
2018-10-16T11:02:46.369Z,17.65
2018-10-16T11:05:17.219Z,17.66
2018-10-16T11:07:47.855Z,17.62
2018-10-16T11:10:20.029Z,17.73
2018-10-16T11:12:50.345Z,17.68
2018-10-16T11:15:20.746Z,17.58
2018-10-16T11:17:51.396Z,17.64
2018-10-16T11:20:21.694Z,17.70
2018-10-16T11:22:51.728Z,17.64
2018-10-16T11:25:22.174Z,17.62
2018-10-16T11:27:53.030Z,17.53
2018-10-16T11:30:23.756Z,17.46
2018-10-16T11:32:54.204Z,17.39
2018-10-16T11:35:24.573Z,17.35
2018-10-16T11:37:54.929Z,17.35
2018-10-16T11:40:25.944Z,17.22
2018-10-16T11:42:57.544Z,17.13
2018-10-16T11:45:27.351Z,17.09
2018-10-16T11:47:57.239Z,17.10
2018-10-16T11:50:27.563Z,17.11
2018-10-16T11:52:58.993Z,17.06
2018-10-16T11:55:29.707Z,17.01
2018-10-16T11:58:00.083Z,17.09
2018-10-16T12:00:32.467Z,16.99
2018-10-16T12:03:02.134Z,16.96
2018-10-16T12:05:32.092Z,17.11
2018-10-16T12:08:03.209Z,16.88
2018-10-16T12:10:33.172Z,16.92
2018-10-16T12:13:03.156Z,16.82
2018-10-16T12:15:33.940Z,16.85
2018-10-16T12:18:16.561Z,16.86
2018-10-16T12:21:06.332Z,16.64
2018-10-16T12:23:36.310Z,16.41
2018-10-16T12:26:07.323Z,16.37
2018-10-16T12:28:37.091Z,16.28
2018-10-16T12:31:08.241Z,16.28
2018-10-16T12:33:38.109Z,16.21
2018-10-16T12:36:09.102Z,16.21
2018-10-16T12:38:40.195Z,16.19
2018-10-16T12:41:10.372Z,16.26
2018-10-16T12:43:41.183Z,16.43
2018-10-16T12:46:11.317Z,16.43
2018-10-16T12:48:42.348Z,16.39
2018-10-16T12:51:13.954Z,16.46
2018-10-16T12:53:44.413Z,16.56
2018-10-16T12:56:15.660Z,16.57
2018-10-16T12:58:46.124Z,16.55
2018-10-16T13:01:16.221Z,16.48
2018-10-16T13:03:46.496Z,16.61
2018-10-16T13:06:16.282Z,16.55
2018-10-16T13:08:46.548Z,16.56
2018-10-16T13:11:17.297Z,16.53
2018-10-16T13:13:48.531Z,16.53
2018-10-16T13:16:19.223Z,16.51
2018-10-16T13:18:49.691Z,16.46
2018-10-16T13:21:20.831Z,16.42
2018-10-16T13:23:53.144Z,16.35
2018-10-16T13:26:23.381Z,16.37
2018-10-16T13:28:53.174Z,16.38
2018-10-16T13:31:23.374Z,16.34
2018-10-16T13:33:53.873Z,16.31
2018-10-16T13:36:23.662Z,16.26
2018-10-16T13:38:54.444Z,16.27
2018-10-16T13:41:24.509Z,16.24
2018-10-16T13:43:55.262Z,16.23
2018-10-16T13:46:26.068Z,16.28
2018-10-16T13:48:56.599Z,16.19
2018-10-16T13:51:26.397Z,16.20
2018-10-16T13:53:57.116Z,16.14
2018-10-16T13:56:27.919Z,16.18
2018-10-16T13:58:58.770Z,16.21
2018-10-16T14:01:29.491Z,16.22
2018-10-16T14:03:59.904Z,16.18
2018-10-16T14:06:30.137Z,16.07
2018-10-16T14:09:00.686Z,16.06
2018-10-16T14:11:31.608Z,16.06
2018-10-16T14:14:03.462Z,16.07
2018-10-16T14:16:34.349Z,16.03
2018-10-16T14:19:05.421Z,15.97
2018-10-16T14:21:35.307Z,15.96
2018-10-16T14:24:05.492Z,15.89
2018-10-16T14:26:36.131Z,15.85
2018-10-16T14:29:06.978Z,15.83
2018-10-16T14:31:37.660Z,15.86
2018-10-16T14:34:08.029Z,15.88
2018-10-16T14:36:37.849Z,15.83
2018-10-16T14:39:09.977Z,15.80
2018-10-16T14:41:39.802Z,15.81
2018-10-16T14:44:10.787Z,15.84
2018-10-16T14:46:41.778Z,15.82
2018-10-16T14:49:12.874Z,15.80
2018-10-16T14:51:43.498Z,15.75
2018-10-16T14:54:13.959Z,15.70
2018-10-16T14:56:44.200Z,15.63
2018-10-16T14:59:14.006Z,15.61
2018-10-16T15:01:43.794Z,15.59
2018-10-16T15:04:14.038Z,15.58
2018-10-16T15:06:44.286Z,15.58
2018-10-16T15:09:15.161Z,15.58
2018-10-16T15:11:45.749Z,15.56
2018-10-16T15:14:17.264Z,15.53
2018-10-16T15:16:49.120Z,15.55
2018-10-16T15:19:19.552Z,15.51
2018-10-16T15:21:50.886Z,15.49
2018-10-16T15:24:22.577Z,15.43
2018-10-16T15:26:53.822Z,15.37
2018-10-16T15:29:24.146Z,15.36
2018-10-16T15:31:56.884Z,15.32
2018-10-16T15:34:29.258Z,15.30
2018-10-16T15:37:00.200Z,15.28
2018-10-16T15:39:30.869Z,15.28
2018-10-16T15:42:02.226Z,15.26
2018-10-16T15:44:32.647Z,15.25
2018-10-16T15:47:03.779Z,15.23
2018-10-16T15:49:33.539Z,15.19
2018-10-16T15:52:03.816Z,15.13
2018-10-16T15:54:33.553Z,15.05
2018-10-16T15:57:04.066Z,14.94
2018-10-16T15:59:33.825Z,14.86
2018-10-16T16:02:04.580Z,14.77
2018-10-16T16:04:34.877Z,14.69
2018-10-16T16:07:06.052Z,14.61
2018-10-16T16:09:35.919Z,14.51
2018-10-16T16:12:07.645Z,14.41
2018-10-16T16:14:37.408Z,14.32
2018-10-16T16:17:07.315Z,14.25
2018-10-16T16:19:37.757Z,14.18
2018-10-16T16:22:08.700Z,14.13
2018-10-16T16:24:39.730Z,14.13
2018-10-16T16:27:09.794Z,14.23
2018-10-16T16:29:40.518Z,14.24
2018-10-16T16:32:10.683Z,14.28
2018-10-16T16:34:41.023Z,14.20
2018-10-16T16:37:11.907Z,14.09
2018-10-16T16:39:43.333Z,14.01
2018-10-16T16:42:13.577Z,13.93
2018-10-16T16:44:44.136Z,13.88
2018-10-16T16:47:14.336Z,13.81
2018-10-16T16:49:44.664Z,13.73
2018-10-16T16:52:14.795Z,13.66
2018-10-16T16:54:45.180Z,13.61
2018-10-16T16:57:15.893Z,13.56
2018-10-16T16:59:46.096Z,13.45
2018-10-16T17:02:15.937Z,13.38
2018-10-16T17:04:46.916Z,13.32
2018-10-16T17:07:17.358Z,13.28
2018-10-16T17:09:47.519Z,13.22
2018-10-16T17:12:19.361Z,13.18
2018-10-16T17:14:49.833Z,13.16
2018-10-16T17:17:20.335Z,13.13
2018-10-16T17:19:51.270Z,13.10
2018-10-16T17:22:21.133Z,13.06
2018-10-16T17:24:53.449Z,13.01
2018-10-16T17:27:24.026Z,12.96
2018-10-16T17:29:53.897Z,12.91
2018-10-16T17:32:24.019Z,12.87
2018-10-16T17:34:54.819Z,12.83
2018-10-16T17:37:25.495Z,12.80
2018-10-16T17:39:56.194Z,12.75
2018-10-16T17:42:26.466Z,12.68
2018-10-16T17:44:58.017Z,12.67
2018-10-16T17:47:28.124Z,12.66
2018-10-16T17:49:58.315Z,12.65
2018-10-16T17:52:28.399Z,12.61
2018-10-16T17:54:58.660Z,12.64
2018-10-16T17:57:29.480Z,12.77
2018-10-16T17:59:59.643Z,12.69
2018-10-16T18:02:30.065Z,12.64
2018-10-16T18:05:00.607Z,12.61
2018-10-16T18:07:30.713Z,12.61
2018-10-16T18:10:02.146Z,12.60
2018-10-16T18:12:32.548Z,12.53
2018-10-16T18:15:05.739Z,12.42
2018-10-16T18:17:36.344Z,12.26
2018-10-16T18:20:08.562Z,12.17
2018-10-16T18:22:39.191Z,12.13
2018-10-16T18:25:10.699Z,12.15
2018-10-16T18:27:41.497Z,12.12
2018-10-16T18:30:12.589Z,12.11
2018-10-16T18:32:43.565Z,12.07
2018-10-16T18:35:13.931Z,12.04
2018-10-16T18:37:44.795Z,11.97
2018-10-16T18:40:15.446Z,11.91
2018-10-16T18:42:45.766Z,11.66
2018-10-16T18:45:17.333Z,11.85
2018-10-16T18:47:48.097Z,11.85
2018-10-16T18:50:19.053Z,11.82
2018-10-16T18:52:50.533Z,11.83
2018-10-16T18:55:21.648Z,11.78
2018-10-16T18:57:52.326Z,11.76
2018-10-16T19:00:25.000Z,11.77
2018-10-16T19:02:55.274Z,11.83
2018-10-16T19:05:25.780Z,11.83
2018-10-16T19:07:56.988Z,11.86
2018-10-16T19:10:27.418Z,11.86
2018-10-16T19:12:58.211Z,11.84
2018-10-16T19:15:28.576Z,11.80
2018-10-16T19:18:00.154Z,11.75
2018-10-16T19:20:30.539Z,11.68
2018-10-16T19:23:01.359Z,11.66
2018-10-16T19:25:31.786Z,11.66
2018-10-16T19:28:02.636Z,11.66
2018-10-16T19:30:33.738Z,11.81
2018-10-16T19:33:05.851Z,11.80
2018-10-16T19:35:36.244Z,11.76
2018-10-16T19:38:07.003Z,11.68
2018-10-16T19:40:37.299Z,11.60
2018-10-16T19:43:08.270Z,11.55
2018-10-16T19:45:39.018Z,11.50
2018-10-16T19:48:10.229Z,11.40
2018-10-16T19:50:41.137Z,11.35
2018-10-16T19:53:11.647Z,11.35
2018-10-16T19:55:45.048Z,11.33
2018-10-16T19:58:17.089Z,11.31
2018-10-16T20:00:48.669Z,11.29
2018-10-16T20:03:19.525Z,11.29
2018-10-16T20:05:51.895Z,11.25
2018-10-16T20:08:23.577Z,11.22
2018-10-16T20:10:55.007Z,11.21
2018-10-16T20:13:26.111Z,11.11
2018-10-16T20:15:56.633Z,11.07
2018-10-16T20:18:29.267Z,11.04
2018-10-16T20:21:00.136Z,11.04
2018-10-16T20:23:32.065Z,11.04
2018-10-16T20:26:02.545Z,11.06
2018-10-16T20:28:33.281Z,11.02
2018-10-16T20:31:03.660Z,11.02
2018-10-16T20:33:33.795Z,11.01
2018-10-16T20:36:04.258Z,10.98
2018-10-16T20:38:35.704Z,10.97
2018-10-16T20:41:05.989Z,10.93
2018-10-16T20:43:36.597Z,10.92
2018-10-16T20:46:07.295Z,10.87
2018-10-16T20:48:37.869Z,10.85
2018-10-16T20:51:07.620Z,10.81
2018-10-16T20:53:38.513Z,10.80
2018-10-16T20:56:09.266Z,10.80
2018-10-16T20:58:39.630Z,10.80
2018-10-16T21:01:10.544Z,10.77
2018-10-16T21:03:40.780Z,10.76
2018-10-16T21:06:11.505Z,10.72
2018-10-16T21:08:41.275Z,10.71
2018-10-16T21:11:11.320Z,10.67
2018-10-16T21:13:41.414Z,10.65
2018-10-16T21:16:13.010Z,10.63
2018-10-16T21:18:43.086Z,10.64
2018-10-16T21:21:14.464Z,10.61
2018-10-16T21:23:44.633Z,10.60
2018-10-16T21:26:14.494Z,10.59
2018-10-16T21:28:45.137Z,10.56
2018-10-16T21:31:15.949Z,10.56
2018-10-16T21:33:45.986Z,10.56
2018-10-16T21:36:15.987Z,10.58
2018-10-16T21:38:46.313Z,10.56
2018-10-16T21:41:17.971Z,10.55
2018-10-16T21:43:48.453Z,10.46
2018-10-16T21:46:18.157Z,10.43
2018-10-16T21:48:48.361Z,10.41
2018-10-16T21:51:18.901Z,10.41
2018-10-16T21:53:48.902Z,10.38
2018-10-16T21:56:19.776Z,10.38
2018-10-16T21:58:50.099Z,10.31
2018-10-16T22:01:25.343Z,10.26
2018-10-16T22:03:55.933Z,10.25
2018-10-16T22:06:26.477Z,10.21
2018-10-16T22:08:56.491Z,10.23
2018-10-16T22:11:27.110Z,10.21
2018-10-16T22:13:56.866Z,10.19
2018-10-16T22:16:28.182Z,10.18
2018-10-16T22:18:58.251Z,10.14
2018-10-16T22:21:28.182Z,10.10
2018-10-16T22:23:57.966Z,10.04
2018-10-16T22:26:27.745Z,10.03
2018-10-16T22:28:58.092Z,10.00
2018-10-16T22:31:27.924Z,9.96
2018-10-16T22:33:58.178Z,9.98
2018-10-16T22:36:28.341Z,10.02
2018-10-16T22:38:58.545Z,10.07
2018-10-16T22:41:28.377Z,10.12
2018-10-16T22:43:59.133Z,10.12
2018-10-16T22:46:29.569Z,10.15
2018-10-16T22:49:00.370Z,10.15
2018-10-16T22:51:31.138Z,10.19
2018-10-16T22:54:01.301Z,10.18
2018-10-16T22:56:31.033Z,10.15
2018-10-16T22:59:01.779Z,10.15
2018-10-16T23:01:32.940Z,10.16
2018-10-16T23:04:03.258Z,10.11
2018-10-16T23:06:34.377Z,10.11
2018-10-16T23:09:05.013Z,10.09
2018-10-16T23:11:35.295Z,10.08
2018-10-16T23:14:05.409Z,10.08
2018-10-16T23:16:36.730Z,10.06
2018-10-16T23:19:06.940Z,10.05
2018-10-16T23:21:37.046Z,10.05
2018-10-16T23:24:07.951Z,10.02
2018-10-16T23:26:38.443Z,10.03
2018-10-16T23:29:09.194Z,10.05
2018-10-16T23:31:40.199Z,10.07
2018-10-16T23:34:10.440Z,10.08
2018-10-16T23:36:40.852Z,10.07
2018-10-16T23:39:13.673Z,10.09
2018-10-16T23:41:43.946Z,10.12
2018-10-16T23:44:14.500Z,10.16
2018-10-16T23:46:44.911Z,10.18
2018-10-16T23:49:15.055Z,10.20
2018-10-16T23:51:44.783Z,10.21
2018-10-16T23:54:14.940Z,10.28
2018-10-16T23:56:45.256Z,10.35
2018-10-16T23:59:16.281Z,10.40
